sensor_id;sensor_type;location;lat;lon;timestamp;P1;durP1;ratioP1;P2;durP2;ratioP2
70138;SDS011;57507;43.056;0.150;2023-03-23T00:01:23;0.77;;;0.50;;
70138;SDS011;57507;43.056;0.150;2023-03-23T00:03:52;0.43;;;0.43;;
70138;SDS011;57507;43.056;0.150;2023-03-23T00:06:18;0.63;;;0.63;;
70138;SDS011;57507;43.056;0.150;2023-03-23T00:08:46;0.38;;;0.38;;
70138;SDS011;57507;43.056;0.150;2023-03-23T00:11:17;0.65;;;0.55;;
70138;SDS011;57507;43.056;0.150;2023-03-23T00:13:47;0.50;;;0.50;;
70138;SDS011;57507;43.056;0.150;2023-03-23T00:16:16;0.40;;;0.40;;
70138;SDS011;57507;43.056;0.150;2023-03-23T00:18:52;0.98;;;0.52;;
70138;SDS011;57507;43.056;0.150;2023-03-23T00:21:21;0.75;;;0.50;;
70138;SDS011;57507;43.056;0.150;2023-03-23T00:24:11;0.70;;;0.40;;
70138;SDS011;57507;43.056;0.150;2023-03-23T00:26:40;1.00;;;0.47;;
70138;SDS011;57507;43.056;0.150;2023-03-23T00:29:11;0.50;;;0.50;;
70138;SDS011;57507;43.056;0.150;2023-03-23T00:31:38;0.52;;;0.52;;
70138;SDS011;57507;43.056;0.150;2023-03-23T00:34:05;0.38;;;0.38;;
70138;SDS011;57507;43.056;0.150;2023-03-23T00:36:32;0.40;;;0.40;;
70138;SDS011;57507;43.056;0.150;2023-03-23T00:39:00;0.30;;;0.30;;
70138;SDS011;57507;43.056;0.150;2023-03-23T00:41:26;0.40;;;0.40;;
70138;SDS011;57507;43.056;0.150;2023-03-23T00:43:56;0.40;;;0.30;;
70138;SDS011;57507;43.056;0.150;2023-03-23T00:46:23;0.30;;;0.30;;
70138;SDS011;57507;43.056;0.150;2023-03-23T00:48:49;0.52;;;0.40;;
70138;SDS011;57507;43.056;0.150;2023-03-23T00:51:19;0.70;;;0.40;;
70138;SDS011;57507;43.056;0.150;2023-03-23T00:53:45;0.30;;;0.30;;
70138;SDS011;57507;43.056;0.150;2023-03-23T00:56:12;0.47;;;0.40;;
70138;SDS011;57507;43.056;0.150;2023-03-23T00:58:38;1.00;;;0.60;;
70138;SDS011;57507;43.056;0.150;2023-03-23T01:01:05;0.65;;;0.40;;
70138;SDS011;57507;43.056;0.150;2023-03-23T01:03:31;1.10;;;0.38;;
70138;SDS011;57507;43.056;0.150;2023-03-23T01:06:03;0.40;;;0.38;;
70138;SDS011;57507;43.056;0.150;2023-03-23T01:08:29;0.40;;;0.35;;
70138;SDS011;57507;43.056;0.150;2023-03-23T01:11:01;0.30;;;0.30;;
70138;SDS011;57507;43.056;0.150;2023-03-23T01:13:28;0.93;;;0.30;;
70138;SDS011;57507;43.056;0.150;2023-03-23T01:15:54;0.47;;;0.47;;
70138;SDS011;57507;43.056;0.150;2023-03-23T01:18:20;0.90;;;0.30;;
70138;SDS011;57507;43.056;0.150;2023-03-23T01:20:46;0.30;;;0.30;;
70138;SDS011;57507;43.056;0.150;2023-03-23T01:23:12;0.50;;;0.50;;
70138;SDS011;57507;43.056;0.150;2023-03-23T01:25:38;0.47;;;0.32;;
70138;SDS011;57507;43.056;0.150;2023-03-23T01:28:04;1.88;;;0.40;;
70138;SDS011;57507;43.056;0.150;2023-03-23T01:30:30;0.85;;;0.32;;
70138;SDS011;57507;43.056;0.150;2023-03-23T01:32:56;0.47;;;0.47;;
70138;SDS011;57507;43.056;0.150;2023-03-23T01:35:22;0.50;;;0.40;;
70138;SDS011;57507;43.056;0.150;2023-03-23T01:37:48;1.02;;;0.40;;
70138;SDS011;57507;43.056;0.150;2023-03-23T01:40:15;0.30;;;0.30;;
70138;SDS011;57507;43.056;0.150;2023-03-23T01:42:41;0.85;;;0.40;;
70138;SDS011;57507;43.056;0.150;2023-03-23T01:47:49;0.40;;;0.40;;
70138;SDS011;57507;43.056;0.150;2023-03-23T01:50:18;0.40;;;0.40;;
70138;SDS011;57507;43.056;0.150;2023-03-23T01:52:45;0.43;;;0.40;;
70138;SDS011;57507;43.056;0.150;2023-03-23T01:55:11;0.40;;;0.40;;
70138;SDS011;57507;43.056;0.150;2023-03-23T01:57:38;0.63;;;0.50;;
70138;SDS011;57507;43.056;0.150;2023-03-23T02:00:05;0.30;;;0.30;;
70138;SDS011;57507;43.056;0.150;2023-03-23T02:02:44;0.25;;;0.22;;
70138;SDS011;57507;43.056;0.150;2023-03-23T02:05:12;0.40;;;0.40;;
70138;SDS011;57507;43.056;0.150;2023-03-23T02:07:39;0.35;;;0.30;;
70138;SDS011;57507;43.056;0.150;2023-03-23T02:10:05;0.30;;;0.30;;
70138;SDS011;57507;43.056;0.150;2023-03-23T02:12:32;0.65;;;0.50;;
70138;SDS011;57507;43.056;0.150;2023-03-23T02:14:58;1.38;;;0.52;;
70138;SDS011;57507;43.056;0.150;2023-03-23T02:22:36;0.30;;;0.30;;
70138;SDS011;57507;43.056;0.150;2023-03-23T02:25:45;0.75;;;0.47;;
70138;SDS011;57507;43.056;0.150;2023-03-23T02:28:14;0.50;;;0.50;;
70138;SDS011;57507;43.056;0.150;2023-03-23T02:35:48;0.30;;;0.30;;
70138;SDS011;57507;43.056;0.150;2023-03-23T02:38:17;0.30;;;0.30;;
70138;SDS011;57507;43.056;0.150;2023-03-23T02:40:45;0.90;;;0.40;;
70138;SDS011;57507;43.056;0.150;2023-03-23T02:43:19;1.20;;;0.40;;
70138;SDS011;57507;43.056;0.150;2023-03-23T02:45:46;0.50;;;0.20;;
70138;SDS011;57507;43.056;0.150;2023-03-23T02:48:14;0.35;;;0.35;;
70138;SDS011;57507;43.056;0.150;2023-03-23T02:50:42;0.30;;;0.30;;
70138;SDS011;57507;43.056;0.150;2023-03-23T02:53:10;0.30;;;0.30;;
70138;SDS011;57507;43.056;0.150;2023-03-23T02:55:37;0.52;;;0.45;;
70138;SDS011;57507;43.056;0.150;2023-03-23T02:58:07;0.90;;;0.28;;
70138;SDS011;57507;43.056;0.150;2023-03-23T03:00:33;0.65;;;0.40;;
70138;SDS011;57507;43.056;0.150;2023-03-23T03:02:59;0.85;;;0.50;;
70138;SDS011;57507;43.056;0.150;2023-03-23T03:08:02;0.55;;;0.38;;
70138;SDS011;57507;43.056;0.150;2023-03-23T03:10:32;0.40;;;0.40;;
70138;SDS011;57507;43.056;0.150;2023-03-23T03:13:11;0.30;;;0.28;;
70138;SDS011;57507;43.056;0.150;2023-03-23T03:21:11;0.35;;;0.35;;
70138;SDS011;57507;43.056;0.150;2023-03-23T03:23:39;0.40;;;0.40;;
70138;SDS011;57507;43.056;0.150;2023-03-23T03:26:07;0.65;;;0.30;;
70138;SDS011;57507;43.056;0.150;2023-03-23T03:28:34;0.50;;;0.30;;
70138;SDS011;57507;43.056;0.150;2023-03-23T03:31:02;0.40;;;0.40;;
70138;SDS011;57507;43.056;0.150;2023-03-23T03:33:28;2.03;;;0.40;;
70138;SDS011;57507;43.056;0.150;2023-03-23T03:35:56;1.80;;;0.40;;
70138;SDS011;57507;43.056;0.150;2023-03-23T03:38:22;0.43;;;0.40;;
70138;SDS011;57507;43.056;0.150;2023-03-23T03:40:49;0.65;;;0.50;;
70138;SDS011;57507;43.056;0.150;2023-03-23T03:43:15;0.22;;;0.22;;
70138;SDS011;57507;43.056;0.150;2023-03-23T03:45:42;0.57;;;0.50;;
70138;SDS011;57507;43.056;0.150;2023-03-23T03:48:08;0.30;;;0.30;;
70138;SDS011;57507;43.056;0.150;2023-03-23T03:50:34;0.30;;;0.30;;
70138;SDS011;57507;43.056;0.150;2023-03-23T03:53:00;1.40;;;0.30;;
70138;SDS011;57507;43.056;0.150;2023-03-23T03:55:26;0.40;;;0.30;;
70138;SDS011;57507;43.056;0.150;2023-03-23T03:57:53;0.32;;;0.30;;
70138;SDS011;57507;43.056;0.150;2023-03-23T04:00:20;0.50;;;0.30;;
70138;SDS011;57507;43.056;0.150;2023-03-23T04:02:48;1.02;;;0.60;;
70138;SDS011;57507;43.056;0.150;2023-03-23T04:05:19;0.40;;;0.30;;
70138;SDS011;57507;43.056;0.150;2023-03-23T04:07:46;0.63;;;0.45;;
70138;SDS011;57507;43.056;0.150;2023-03-23T04:10:14;0.30;;;0.30;;
70138;SDS011;57507;43.056;0.150;2023-03-23T04:12:40;1.02;;;0.40;;
70138;SDS011;57507;43.056;0.150;2023-03-23T04:15:07;0.68;;;0.40;;
70138;SDS011;57507;43.056;0.150;2023-03-23T04:17:34;0.98;;;0.40;;
70138;SDS011;57507;43.056;0.150;2023-03-23T04:20:01;0.52;;;0.40;;
70138;SDS011;57507;43.056;0.150;2023-03-23T04:22:32;0.90;;;0.40;;
70138;SDS011;57507;43.056;0.150;2023-03-23T04:24:58;0.60;;;0.40;;
70138;SDS011;57507;43.056;0.150;2023-03-23T04:27:25;0.70;;;0.50;;
70138;SDS011;57507;43.056;0.150;2023-03-23T04:29:53;0.30;;;0.30;;
70138;SDS011;57507;43.056;0.150;2023-03-23T04:32:19;0.50;;;0.45;;
70138;SDS011;57507;43.056;0.150;2023-03-23T04:34:46;0.30;;;0.30;;
70138;SDS011;57507;43.056;0.150;2023-03-23T04:37:13;0.32;;;0.30;;
70138;SDS011;57507;43.056;0.150;2023-03-23T04:39:39;0.30;;;0.30;;
70138;SDS011;57507;43.056;0.150;2023-03-23T04:42:06;0.65;;;0.40;;
70138;SDS011;57507;43.056;0.150;2023-03-23T04:44:34;0.50;;;0.50;;
70138;SDS011;57507;43.056;0.150;2023-03-23T04:47:00;0.52;;;0.30;;
70138;SDS011;57507;43.056;0.150;2023-03-23T04:49:27;0.20;;;0.20;;
70138;SDS011;57507;43.056;0.150;2023-03-23T04:51:54;0.28;;;0.28;;
70138;SDS011;57507;43.056;0.150;2023-03-23T04:54:21;0.30;;;0.30;;
70138;SDS011;57507;43.056;0.150;2023-03-23T04:56:47;0.30;;;0.30;;
70138;SDS011;57507;43.056;0.150;2023-03-23T04:59:13;0.47;;;0.30;;
70138;SDS011;57507;43.056;0.150;2023-03-23T05:01:40;0.85;;;0.40;;
70138;SDS011;57507;43.056;0.150;2023-03-23T05:04:10;0.45;;;0.32;;
70138;SDS011;57507;43.056;0.150;2023-03-23T05:06:41;0.30;;;0.30;;
70138;SDS011;57507;43.056;0.150;2023-03-23T05:09:09;1.25;;;0.30;;
70138;SDS011;57507;43.056;0.150;2023-03-23T05:11:35;0.30;;;0.30;;
70138;SDS011;57507;43.056;0.150;2023-03-23T05:14:03;0.40;;;0.38;;
70138;SDS011;57507;43.056;0.150;2023-03-23T05:16:29;1.25;;;0.50;;
70138;SDS011;57507;43.056;0.150;2023-03-23T05:18:55;2.05;;;0.30;;
70138;SDS011;57507;43.056;0.150;2023-03-23T05:21:24;0.82;;;0.30;;
70138;SDS011;57507;43.056;0.150;2023-03-23T05:23:51;1.48;;;0.45;;
70138;SDS011;57507;43.056;0.150;2023-03-23T05:26:20;0.30;;;0.30;;
70138;SDS011;57507;43.056;0.150;2023-03-23T05:28:46;0.40;;;0.35;;
70138;SDS011;57507;43.056;0.150;2023-03-23T05:31:13;5.88;;;5.18;;
70138;SDS011;57507;43.056;0.150;2023-03-23T05:33:39;0.85;;;0.80;;
70138;SDS011;57507;43.056;0.150;2023-03-23T05:36:05;0.70;;;0.50;;
70138;SDS011;57507;43.056;0.150;2023-03-23T05:38:35;0.70;;;0.43;;
70138;SDS011;57507;43.056;0.150;2023-03-23T05:41:04;1.17;;;0.40;;
70138;SDS011;57507;43.056;0.150;2023-03-23T05:43:30;0.32;;;0.30;;
70138;SDS011;57507;43.056;0.150;2023-03-23T05:45:56;0.77;;;0.30;;
70138;SDS011;57507;43.056;0.150;2023-03-23T05:48:22;0.30;;;0.30;;
70138;SDS011;57507;43.056;0.150;2023-03-23T05:50:48;0.57;;;0.40;;
70138;SDS011;57507;43.056;0.150;2023-03-23T05:53:14;0.35;;;0.30;;
70138;SDS011;57507;43.056;0.150;2023-03-23T05:55:40;4.75;;;0.57;;
70138;SDS011;57507;43.056;0.150;2023-03-23T05:58:06;0.50;;;0.40;;
70138;SDS011;57507;43.056;0.150;2023-03-23T06:00:32;0.80;;;0.35;;
70138;SDS011;57507;43.056;0.150;2023-03-23T06:03:00;1.95;;;0.60;;
70138;SDS011;57507;43.056;0.150;2023-03-23T06:05:26;0.50;;;0.43;;
70138;SDS011;57507;43.056;0.150;2023-03-23T06:07:54;0.50;;;0.30;;
70138;SDS011;57507;43.056;0.150;2023-03-23T06:10:20;0.82;;;0.50;;
70138;SDS011;57507;43.056;0.150;2023-03-23T06:12:46;0.40;;;0.40;;
70138;SDS011;57507;43.056;0.150;2023-03-23T06:15:12;1.20;;;0.43;;
70138;SDS011;57507;43.056;0.150;2023-03-23T06:17:39;0.63;;;0.40;;
70138;SDS011;57507;43.056;0.150;2023-03-23T06:20:05;1.00;;;0.45;;
70138;SDS011;57507;43.056;0.150;2023-03-23T06:22:38;1.23;;;0.50;;
70138;SDS011;57507;43.056;0.150;2023-03-23T06:25:08;0.43;;;0.40;;
70138;SDS011;57507;43.056;0.150;2023-03-23T06:27:36;2.63;;;0.60;;
70138;SDS011;57507;43.056;0.150;2023-03-23T06:30:03;1.00;;;0.60;;
70138;SDS011;57507;43.056;0.150;2023-03-23T06:32:29;0.47;;;0.40;;
70138;SDS011;57507;43.056;0.150;2023-03-23T06:34:55;1.42;;;0.50;;
70138;SDS011;57507;43.056;0.150;2023-03-23T06:37:22;0.80;;;0.77;;
70138;SDS011;57507;43.056;0.150;2023-03-23T06:39:49;0.55;;;0.45;;
70138;SDS011;57507;43.056;0.150;2023-03-23T06:42:15;0.40;;;0.40;;
70138;SDS011;57507;43.056;0.150;2023-03-23T06:44:41;0.47;;;0.40;;
70138;SDS011;57507;43.056;0.150;2023-03-23T06:47:07;0.40;;;0.40;;
70138;SDS011;57507;43.056;0.150;2023-03-23T06:49:34;0.63;;;0.55;;
70138;SDS011;57507;43.056;0.150;2023-03-23T06:52:00;0.63;;;0.50;;
70138;SDS011;57507;43.056;0.150;2023-03-23T06:54:28;0.43;;;0.35;;
70138;SDS011;57507;43.056;0.150;2023-03-23T06:56:54;0.90;;;0.30;;
70138;SDS011;57507;43.056;0.150;2023-03-23T06:59:20;1.77;;;0.60;;
70138;SDS011;57507;43.056;0.150;2023-03-23T07:01:46;0.68;;;0.45;;
70138;SDS011;57507;43.056;0.150;2023-03-23T07:04:13;1.50;;;0.40;;
70138;SDS011;57507;43.056;0.150;2023-03-23T07:06:39;0.55;;;0.40;;
70138;SDS011;57507;43.056;0.150;2023-03-23T07:09:05;1.35;;;0.30;;
70138;SDS011;57507;43.056;0.150;2023-03-23T07:11:31;1.70;;;0.50;;
70138;SDS011;57507;43.056;0.150;2023-03-23T07:13:57;1.15;;;0.60;;
70138;SDS011;57507;43.056;0.150;2023-03-23T07:16:23;1.20;;;0.40;;
70138;SDS011;57507;43.056;0.150;2023-03-23T07:18:51;1.40;;;0.60;;
70138;SDS011;57507;43.056;0.150;2023-03-23T07:21:17;1.02;;;0.40;;
70138;SDS011;57507;43.056;0.150;2023-03-23T07:23:43;0.63;;;0.50;;
70138;SDS011;57507;43.056;0.150;2023-03-23T07:26:11;1.85;;;0.45;;
70138;SDS011;57507;43.056;0.150;2023-03-23T07:28:37;1.10;;;0.63;;
70138;SDS011;57507;43.056;0.150;2023-03-23T07:31:05;1.20;;;0.50;;
70138;SDS011;57507;43.056;0.150;2023-03-23T07:33:33;1.10;;;0.70;;
70138;SDS011;57507;43.056;0.150;2023-03-23T07:36:00;1.33;;;0.80;;
70138;SDS011;57507;43.056;0.150;2023-03-23T07:38:27;1.30;;;0.70;;
70138;SDS011;57507;43.056;0.150;2023-03-23T07:40:54;1.38;;;0.60;;
70138;SDS011;57507;43.056;0.150;2023-03-23T07:43:21;2.13;;;0.82;;
70138;SDS011;57507;43.056;0.150;2023-03-23T07:45:47;1.17;;;0.52;;
70138;SDS011;57507;43.056;0.150;2023-03-23T07:48:13;1.00;;;0.70;;
70138;SDS011;57507;43.056;0.150;2023-03-23T07:50:39;2.30;;;0.85;;
70138;SDS011;57507;43.056;0.150;2023-03-23T07:53:06;1.33;;;1.20;;
70138;SDS011;57507;43.056;0.150;2023-03-23T07:55:32;4.15;;;0.90;;
70138;SDS011;57507;43.056;0.150;2023-03-23T07:57:58;1.90;;;0.68;;
70138;SDS011;57507;43.056;0.150;2023-03-23T08:00:24;1.92;;;0.63;;
70138;SDS011;57507;43.056;0.150;2023-03-23T08:02:52;0.65;;;0.40;;
70138;SDS011;57507;43.056;0.150;2023-03-23T08:05:20;1.15;;;0.60;;
70138;SDS011;57507;43.056;0.150;2023-03-23T08:07:47;0.73;;;0.50;;
70138;SDS011;57507;43.056;0.150;2023-03-23T08:10:14;0.65;;;0.47;;
70138;SDS011;57507;43.056;0.150;2023-03-23T08:12:41;1.08;;;0.73;;
70138;SDS011;57507;43.056;0.150;2023-03-23T08:15:08;0.45;;;0.40;;
70138;SDS011;57507;43.056;0.150;2023-03-23T08:17:37;0.90;;;0.45;;
70138;SDS011;57507;43.056;0.150;2023-03-23T08:20:04;0.77;;;0.55;;
70138;SDS011;57507;43.056;0.150;2023-03-23T08:22:36;1.27;;;0.57;;
70138;SDS011;57507;43.056;0.150;2023-03-23T08:25:03;0.73;;;0.60;;
70138;SDS011;57507;43.056;0.150;2023-03-23T08:27:29;1.55;;;0.60;;
70138;SDS011;57507;43.056;0.150;2023-03-23T08:29:56;1.33;;;0.57;;
70138;SDS011;57507;43.056;0.150;2023-03-23T08:32:22;1.48;;;0.70;;
70138;SDS011;57507;43.056;0.150;2023-03-23T08:34:48;2.80;;;0.57;;
70138;SDS011;57507;43.056;0.150;2023-03-23T08:37:14;1.95;;;0.77;;
70138;SDS011;57507;43.056;0.150;2023-03-23T08:39:41;3.15;;;1.10;;
70138;SDS011;57507;43.056;0.150;2023-03-23T08:42:09;6.25;;;2.08;;
70138;SDS011;57507;43.056;0.150;2023-03-23T08:44:35;11.43;;;5.55;;
70138;SDS011;57507;43.056;0.150;2023-03-23T08:47:02;15.45;;;8.60;;
70138;SDS011;57507;43.056;0.150;2023-03-23T08:49:29;17.20;;;8.60;;
70138;SDS011;57507;43.056;0.150;2023-03-23T08:51:57;7.35;;;3.72;;
70138;SDS011;57507;43.056;0.150;2023-03-23T08:54:23;11.73;;;7.50;;
70138;SDS011;57507;43.056;0.150;2023-03-23T08:56:49;12.10;;;7.68;;
70138;SDS011;57507;43.056;0.150;2023-03-23T08:59:16;14.57;;;8.65;;
70138;SDS011;57507;43.056;0.150;2023-03-23T09:01:42;8.57;;;4.82;;
70138;SDS011;57507;43.056;0.150;2023-03-23T09:04:08;6.15;;;3.25;;
70138;SDS011;57507;43.056;0.150;2023-03-23T09:06:35;11.63;;;6.82;;
70138;SDS011;57507;43.056;0.150;2023-03-23T09:09:02;48.22;;;28.10;;
70138;SDS011;57507;43.056;0.150;2023-03-23T09:11:32;24.00;;;12.95;;
70138;SDS011;57507;43.056;0.150;2023-03-23T09:13:58;33.08;;;18.67;;
70138;SDS011;57507;43.056;0.150;2023-03-23T09:16:24;21.17;;;12.60;;
70138;SDS011;57507;43.056;0.150;2023-03-23T09:18:50;19.52;;;11.07;;
70138;SDS011;57507;43.056;0.150;2023-03-23T09:21:16;7.93;;;4.90;;
70138;SDS011;57507;43.056;0.150;2023-03-23T09:23:42;3.03;;;2.05;;
70138;SDS011;57507;43.056;0.150;2023-03-23T09:26:09;16.90;;;10.43;;
70138;SDS011;57507;43.056;0.150;2023-03-23T09:28:36;7.75;;;4.38;;
70138;SDS011;57507;43.056;0.150;2023-03-23T09:31:02;6.20;;;3.08;;
70138;SDS011;57507;43.056;0.150;2023-03-23T09:33:29;3.35;;;1.52;;
70138;SDS011;57507;43.056;0.150;2023-03-23T09:35:59;4.07;;;1.52;;
70138;SDS011;57507;43.056;0.150;2023-03-23T09:38:25;2.05;;;0.95;;
70138;SDS011;57507;43.056;0.150;2023-03-23T09:49:02;1.38;;;0.88;;
70138;SDS011;57507;43.056;0.150;2023-03-23T09:56:49;1.10;;;0.88;;
70138;SDS011;57507;43.056;0.150;2023-03-23T09:59:20;2.30;;;0.90;;
70138;SDS011;57507;43.056;0.150;2023-03-23T10:01:51;1.88;;;0.90;;
70138;SDS011;57507;43.056;0.150;2023-03-23T10:07:09;2.63;;;1.25;;
70138;SDS011;57507;43.056;0.150;2023-03-23T10:09:36;2.25;;;1.20;;
70138;SDS011;57507;43.056;0.150;2023-03-23T10:20:25;1.60;;;1.20;;
70138;SDS011;57507;43.056;0.150;2023-03-23T10:22:38;3.05;;;0.80;;
70138;SDS011;57507;43.056;0.150;2023-03-23T10:30:24;2.60;;;1.90;;
70138;SDS011;57507;43.056;0.150;2023-03-23T10:32:53;3.28;;;1.10;;
70138;SDS011;57507;43.056;0.150;2023-03-23T10:35:24;2.65;;;0.88;;
70138;SDS011;57507;43.056;0.150;2023-03-23T10:37:54;1.02;;;0.93;;
70138;SDS011;57507;43.056;0.150;2023-03-23T10:40:23;1.48;;;0.90;;
70138;SDS011;57507;43.056;0.150;2023-03-23T10:42:51;1.80;;;0.77;;
70138;SDS011;57507;43.056;0.150;2023-03-23T10:47:49;2.28;;;1.00;;
70138;SDS011;57507;43.056;0.150;2023-03-23T10:50:17;5.25;;;1.10;;
70138;SDS011;57507;43.056;0.150;2023-03-23T10:52:43;7.55;;;1.40;;
70138;SDS011;57507;43.056;0.150;2023-03-23T10:55:14;0.95;;;0.80;;
70138;SDS011;57507;43.056;0.150;2023-03-23T10:57:45;1.58;;;1.05;;
70138;SDS011;57507;43.056;0.150;2023-03-23T11:02:45;3.20;;;1.10;;
70138;SDS011;57507;43.056;0.150;2023-03-23T11:05:19;1.52;;;1.00;;
70138;SDS011;57507;43.056;0.150;2023-03-23T11:07:50;1.10;;;0.90;;
70138;SDS011;57507;43.056;0.150;2023-03-23T11:10:21;3.20;;;1.00;;
70138;SDS011;57507;43.056;0.150;2023-03-23T11:12:47;1.55;;;1.08;;
70138;SDS011;57507;43.056;0.150;2023-03-23T11:15:29;1.60;;;0.90;;
70138;SDS011;57507;43.056;0.150;2023-03-23T11:17:56;1.65;;;1.05;;
70138;SDS011;57507;43.056;0.150;2023-03-23T11:20:23;4.32;;;1.05;;
70138;SDS011;57507;43.056;0.150;2023-03-23T11:22:50;1.60;;;0.90;;
70138;SDS011;57507;43.056;0.150;2023-03-23T11:25:16;2.03;;;1.20;;
70138;SDS011;57507;43.056;0.150;2023-03-23T11:27:42;1.30;;;1.00;;
70138;SDS011;57507;43.056;0.150;2023-03-23T11:30:10;1.17;;;1.08;;
70138;SDS011;57507;43.056;0.150;2023-03-23T11:32:37;1.35;;;0.98;;
70138;SDS011;57507;43.056;0.150;2023-03-23T11:35:04;2.17;;;0.80;;
70138;SDS011;57507;43.056;0.150;2023-03-23T11:37:40;4.53;;;1.48;;
70138;SDS011;57507;43.056;0.150;2023-03-23T11:45:45;3.42;;;0.93;;
70138;SDS011;57507;43.056;0.150;2023-03-23T11:50:20;1.73;;;1.00;;
70138;SDS011;57507;43.056;0.150;2023-03-23T11:52:49;1.70;;;1.00;;
70138;SDS011;57507;43.056;0.150;2023-03-23T11:55:19;4.95;;;1.00;;
70138;SDS011;57507;43.056;0.150;2023-03-23T11:57:46;1.48;;;1.10;;
70138;SDS011;57507;43.056;0.150;2023-03-23T12:00:16;3.10;;;0.77;;
70138;SDS011;57507;43.056;0.150;2023-03-23T12:02:56;1.23;;;0.70;;
70138;SDS011;57507;43.056;0.150;2023-03-23T12:05:30;1.00;;;0.90;;
70138;SDS011;57507;43.056;0.150;2023-03-23T12:10:26;3.17;;;1.20;;
70138;SDS011;57507;43.056;0.150;2023-03-23T12:13:00;3.05;;;1.13;;
70138;SDS011;57507;43.056;0.150;2023-03-23T12:36:19;3.22;;;1.02;;
70138;SDS011;57507;43.056;0.150;2023-03-23T12:44:12;2.30;;;1.40;;
70138;SDS011;57507;43.056;0.150;2023-03-23T12:54:44;1.55;;;1.30;;
70138;SDS011;57507;43.056;0.150;2023-03-23T13:04:36;1.42;;;1.20;;
70138;SDS011;57507;43.056;0.150;2023-03-23T13:07:05;1.75;;;0.90;;
70138;SDS011;57507;43.056;0.150;2023-03-23T13:09:48;1.95;;;0.90;;
70138;SDS011;57507;43.056;0.150;2023-03-23T13:12:15;2.20;;;1.00;;
70138;SDS011;57507;43.056;0.150;2023-03-23T13:14:45;2.08;;;1.00;;
70138;SDS011;57507;43.056;0.150;2023-03-23T13:24:54;2.67;;;1.10;;
70138;SDS011;57507;43.056;0.150;2023-03-23T13:27:27;3.00;;;0.98;;
70138;SDS011;57507;43.056;0.150;2023-03-23T13:29:55;1.80;;;1.10;;
70138;SDS011;57507;43.056;0.150;2023-03-23T13:32:23;3.97;;;1.00;;
70138;SDS011;57507;43.056;0.150;2023-03-23T13:34:55;0.98;;;0.80;;
70138;SDS011;57507;43.056;0.150;2023-03-23T13:37:22;2.10;;;1.13;;
70138;SDS011;57507;43.056;0.150;2023-03-23T13:54:47;2.00;;;1.00;;
70138;SDS011;57507;43.056;0.150;2023-03-23T13:57:20;1.20;;;1.05;;
70138;SDS011;57507;43.056;0.150;2023-03-23T13:59:48;3.88;;;2.63;;
70138;SDS011;57507;43.056;0.150;2023-03-23T14:02:31;2.55;;;1.70;;
70138;SDS011;57507;43.056;0.150;2023-03-23T14:05:08;3.10;;;2.45;;
70138;SDS011;57507;43.056;0.150;2023-03-23T14:07:51;3.55;;;2.50;;
70138;SDS011;57507;43.056;0.150;2023-03-23T14:10:17;2.97;;;1.90;;
70138;SDS011;57507;43.056;0.150;2023-03-23T14:12:43;3.42;;;2.50;;
70138;SDS011;57507;43.056;0.150;2023-03-23T14:15:11;5.80;;;3.83;;
70138;SDS011;57507;43.056;0.150;2023-03-23T14:17:41;6.03;;;3.58;;
70138;SDS011;57507;43.056;0.150;2023-03-23T14:20:19;3.13;;;2.17;;
70138;SDS011;57507;43.056;0.150;2023-03-23T14:22:46;3.65;;;1.45;;
70138;SDS011;57507;43.056;0.150;2023-03-23T14:25:14;1.35;;;1.17;;
70138;SDS011;57507;43.056;0.150;2023-03-23T14:27:40;1.55;;;1.30;;
70138;SDS011;57507;43.056;0.150;2023-03-23T14:30:21;1.35;;;1.00;;
70138;SDS011;57507;43.056;0.150;2023-03-23T14:32:48;3.05;;;1.40;;
70138;SDS011;57507;43.056;0.150;2023-03-23T14:35:17;1.50;;;1.05;;
70138;SDS011;57507;43.056;0.150;2023-03-23T14:37:46;2.03;;;1.10;;
70138;SDS011;57507;43.056;0.150;2023-03-23T14:40:13;1.45;;;0.90;;
70138;SDS011;57507;43.056;0.150;2023-03-23T14:42:40;1.67;;;1.02;;
70138;SDS011;57507;43.056;0.150;2023-03-23T14:45:10;1.00;;;0.90;;
70138;SDS011;57507;43.056;0.150;2023-03-23T14:47:38;1.63;;;1.10;;
70138;SDS011;57507;43.056;0.150;2023-03-23T14:50:22;1.50;;;1.25;;
70138;SDS011;57507;43.056;0.150;2023-03-23T14:52:49;2.63;;;1.25;;
70138;SDS011;57507;43.056;0.150;2023-03-23T14:57:41;2.15;;;1.10;;
70138;SDS011;57507;43.056;0.150;2023-03-23T15:00:11;3.05;;;1.38;;
70138;SDS011;57507;43.056;0.150;2023-03-23T15:02:39;2.40;;;1.10;;
70138;SDS011;57507;43.056;0.150;2023-03-23T15:05:10;1.95;;;1.08;;
70138;SDS011;57507;43.056;0.150;2023-03-23T15:07:37;2.60;;;1.30;;
70138;SDS011;57507;43.056;0.150;2023-03-23T15:10:07;1.27;;;1.00;;
70138;SDS011;57507;43.056;0.150;2023-03-23T15:12:35;2.15;;;1.23;;
70138;SDS011;57507;43.056;0.150;2023-03-23T15:15:05;1.33;;;1.13;;
70138;SDS011;57507;43.056;0.150;2023-03-23T15:17:34;1.48;;;1.10;;
70138;SDS011;57507;43.056;0.150;2023-03-23T15:20:17;1.75;;;1.30;;
70138;SDS011;57507;43.056;0.150;2023-03-23T15:22:45;2.58;;;1.20;;
70138;SDS011;57507;43.056;0.150;2023-03-23T15:25:19;1.52;;;1.20;;
70138;SDS011;57507;43.056;0.150;2023-03-23T15:27:52;1.45;;;1.08;;
70138;SDS011;57507;43.056;0.150;2023-03-23T15:32:54;7.57;;;1.25;;
70138;SDS011;57507;43.056;0.150;2023-03-23T15:35:24;2.40;;;1.52;;
70138;SDS011;57507;43.056;0.150;2023-03-23T15:37:57;2.63;;;1.42;;
70138;SDS011;57507;43.056;0.150;2023-03-23T15:40:24;2.72;;;1.30;;
70138;SDS011;57507;43.056;0.150;2023-03-23T15:45:36;2.42;;;1.77;;
70138;SDS011;57507;43.056;0.150;2023-03-23T15:48:12;2.72;;;1.75;;
70138;SDS011;57507;43.056;0.150;2023-03-23T15:50:39;2.08;;;1.40;;
70138;SDS011;57507;43.056;0.150;2023-03-23T15:55:43;3.28;;;1.55;;
70138;SDS011;57507;43.056;0.150;2023-03-23T15:58:10;2.28;;;1.27;;
70138;SDS011;57507;43.056;0.150;2023-03-23T16:00:37;1.90;;;1.35;;
70138;SDS011;57507;43.056;0.150;2023-03-23T16:03:04;3.30;;;1.85;;
70138;SDS011;57507;43.056;0.150;2023-03-23T16:05:31;3.40;;;1.77;;
70138;SDS011;57507;43.056;0.150;2023-03-23T16:07:57;3.45;;;1.65;;
70138;SDS011;57507;43.056;0.150;2023-03-23T16:10:24;2.60;;;1.80;;
70138;SDS011;57507;43.056;0.150;2023-03-23T16:12:50;2.80;;;1.77;;
70138;SDS011;57507;43.056;0.150;2023-03-23T16:15:16;1.95;;;1.58;;
70138;SDS011;57507;43.056;0.150;2023-03-23T16:17:43;3.08;;;1.75;;
70138;SDS011;57507;43.056;0.150;2023-03-23T16:20:21;3.60;;;1.70;;
70138;SDS011;57507;43.056;0.150;2023-03-23T16:22:47;3.47;;;1.70;;
70138;SDS011;57507;43.056;0.150;2023-03-23T16:25:14;2.00;;;1.60;;
70138;SDS011;57507;43.056;0.150;2023-03-23T16:27:41;1.60;;;1.40;;
70138;SDS011;57507;43.056;0.150;2023-03-23T16:30:17;3.60;;;1.38;;
70138;SDS011;57507;43.056;0.150;2023-03-23T16:32:43;3.60;;;1.50;;
70138;SDS011;57507;43.056;0.150;2023-03-23T16:35:10;1.77;;;1.30;;
70138;SDS011;57507;43.056;0.150;2023-03-23T16:37:37;2.35;;;1.50;;
70138;SDS011;57507;43.056;0.150;2023-03-23T16:40:03;2.40;;;1.60;;
70138;SDS011;57507;43.056;0.150;2023-03-23T16:42:30;1.90;;;1.50;;
70138;SDS011;57507;43.056;0.150;2023-03-23T16:44:56;2.10;;;1.50;;
70138;SDS011;57507;43.056;0.150;2023-03-23T16:47:22;1.70;;;1.13;;
70138;SDS011;57507;43.056;0.150;2023-03-23T16:49:49;2.55;;;1.40;;
70138;SDS011;57507;43.056;0.150;2023-03-23T16:52:15;1.67;;;1.20;;
70138;SDS011;57507;43.056;0.150;2023-03-23T16:54:41;1.73;;;1.17;;
70138;SDS011;57507;43.056;0.150;2023-03-23T16:57:07;2.03;;;1.30;;
70138;SDS011;57507;43.056;0.150;2023-03-23T16:59:33;2.10;;;1.40;;
70138;SDS011;57507;43.056;0.150;2023-03-23T17:02:00;1.30;;;1.15;;
70138;SDS011;57507;43.056;0.150;2023-03-23T17:04:30;1.33;;;1.23;;
70138;SDS011;57507;43.056;0.150;2023-03-23T17:06:57;1.95;;;1.20;;
70138;SDS011;57507;43.056;0.150;2023-03-23T17:09:26;2.92;;;1.25;;
70138;SDS011;57507;43.056;0.150;2023-03-23T17:11:52;1.58;;;1.23;;
70138;SDS011;57507;43.056;0.150;2023-03-23T17:14:19;1.70;;;1.20;;